Time;durP1;ratioP1;P1;durP2;ratioP2;P2;SDS_P1;SDS_P2;PMS_P1;PMS_P2;Temp;Humidity;BMP_temperature;BMP_pressure;BME280_temperature;BME280_humidity;BME280_pressure;Samples;Min_cycle;Max_cycle;Signal;HPM_P1;HPM_P2
2021/12/17 00:08:23;;;;;;;;;;;2.60;99.90;;;;;;5919830;24;19959;-83
2021/12/17 00:49:29;;;;;;;;;;;2.30;99.90;;;;;;6102601;23;19924;-86
2021/12/17 00:51:59;;;;;;;;;;;2.30;99.90;;;;;;6101667;23;19920;-84
2021/12/17 00:54:32;;;;;;;;;;;2.40;99.90;;;;;;6102135;23;19925;-86
2021/12/17 00:57:06;;;;;;;;;;;2.40;99.90;;;;;;6078504;23;19925;-85
2021/12/17 00:59:34;;;;;;;;;;;2.40;99.90;;;;;;6130569;23;19924;-86
2021/12/17 01:02:04;;;;;;;;;;;2.50;99.90;;;;;;6101837;23;19932;-86
2021/12/17 01:04:32;;;;;;;;;;;2.40;99.90;;;;;;6102547;23;19947;-85
2021/12/17 01:06:59;;;;;;;;;;;2.40;99.90;;;;;;6133088;23;19924;-86
2021/12/17 01:09:28;;;;;;;;;;;2.40;99.90;;;;;;6137234;23;19924;-86
2021/12/17 01:11:56;;;;;;;;;;;2.40;99.90;;;;;;6128713;23;19920;-86
2021/12/17 01:15:10;;;;;;;;;;;2.40;99.90;;;;;;6158174;23;20655;-86
2021/12/17 01:18:47;;;;;;;;;;;2.30;99.90;;;;;;6137185;23;19920;-85
2021/12/17 01:25:47;;;;;;;;;;;2.20;99.90;;;;;;6122034;23;19947;-80
2021/12/17 01:42:50;;;;;;;;;;;2.10;99.90;;;;;;6100629;23;19952;-85
2021/12/17 01:45:18;;;;;;;;;;;2.10;99.90;;;;;;6102172;23;19920;-86
2021/12/17 01:47:45;;;;;;;;;;;2.10;99.90;;;;;;6129329;23;19936;-85
2021/12/17 02:01:05;;;;;;;;;;;2.20;99.90;;;;;;6135806;23;19932;-80
2021/12/17 02:03:33;;;;;;;;;;;2.20;99.90;;;;;;6101156;23;19925;-85
2021/12/17 02:06:03;;;;;;;;;;;2.20;99.90;;;;;;6126526;23;19921;-86
2021/12/17 02:08:31;;;;;;;;;;;2.20;99.90;;;;;;6101207;23;19928;-85
2021/12/17 02:32:42;;;;;;;;;;;2.20;99.90;;;;;;6135657;23;20263;-81
2021/12/17 02:37:40;;;;;;;;;;;2.30;99.90;;;;;;6136491;23;19921;-80
2021/12/17 02:46:23;;;;;;;;;;;2.30;99.90;;;;;;6101156;23;20244;-80
2021/12/17 02:49:04;;;;;;;;;;;2.30;99.90;;;;;;6101687;23;20256;-80
2021/12/17 02:52:36;;;;;;;;;;;2.40;99.90;;;;;;6127764;23;19921;-80
2021/12/17 02:55:32;;;;;;;;;;;2.40;99.90;;;;;;6155748;23;19924;-80
2021/12/17 02:58:01;;;;;;;;;;;2.40;99.90;;;;;;6161280;23;19925;-81
2021/12/17 03:00:31;;;;;;;;;;;2.40;99.90;;;;;;6151847;23;19931;-80
2021/12/17 03:03:01;;;;;;;;;;;2.40;99.90;;;;;;6131885;23;19932;-80
2021/12/17 03:05:29;;;;;;;;;;;2.40;99.90;;;;;;6126137;23;19920;-81
2021/12/17 03:07:57;;;;;;;;;;;2.50;99.90;;;;;;6154553;23;19925;-81
2021/12/17 03:10:25;;;;;;;;;;;2.40;99.90;;;;;;6100904;23;19931;-80
2021/12/17 03:12:58;;;;;;;;;;;2.40;99.90;;;;;;6135487;23;20229;-81
2021/12/17 03:23:41;;;;;;;;;;;2.40;99.90;;;;;;6125159;23;19921;-81
2021/12/17 03:26:27;;;;;;;;;;;2.40;99.90;;;;;;6134301;23;19931;-80
2021/12/17 03:28:57;;;;;;;;;;;2.30;99.90;;;;;;6100721;23;19928;-81
2021/12/17 03:31:27;;;;;;;;;;;2.40;99.90;;;;;;6129537;23;19924;-80
2021/12/17 03:34:05;;;;;;;;;;;2.40;99.90;;;;;;6136126;23;20233;-81
2021/12/17 03:36:32;;;;;;;;;;;2.40;99.90;;;;;;6125315;23;19921;-80
2021/12/17 03:39:00;;;;;;;;;;;2.40;99.90;;;;;;6076757;23;19940;-80
2021/12/17 03:41:36;;;;;;;;;;;2.40;99.90;;;;;;6161820;23;19931;-80
2021/12/17 03:44:05;;;;;;;;;;;2.40;99.90;;;;;;6127404;23;19931;-80
2021/12/17 03:46:53;;;;;;;;;;;2.40;99.90;;;;;;6130593;23;19920;-80
2021/12/17 03:49:23;;;;;;;;;;;2.40;99.90;;;;;;6132190;23;19951;-80
2021/12/17 03:52:04;;;;;;;;;;;2.40;99.90;;;;;;6101810;23;19921;-80
2021/12/17 03:54:42;;;;;;;;;;;2.40;99.90;;;;;;6102491;23;19928;-80
2021/12/17 03:57:13;;;;;;;;;;;2.40;99.90;;;;;;6102085;23;20261;-80
2021/12/17 03:59:45;;;;;;;;;;;2.40;99.90;;;;;;6102512;23;19921;-80
2021/12/17 04:02:13;;;;;;;;;;;2.40;99.90;;;;;;6101847;23;19924;-81
2021/12/17 04:04:42;;;;;;;;;;;2.40;99.90;;;;;;6137954;23;19920;-81
2021/12/17 04:07:31;;;;;;;;;;;2.40;99.90;;;;;;6126173;23;19924;-81
2021/12/17 04:10:08;;;;;;;;;;;2.40;99.90;;;;;;6162369;23;20240;-81
2021/12/17 04:12:55;;;;;;;;;;;2.40;99.90;;;;;;6136159;23;19928;-81
2021/12/17 04:15:35;;;;;;;;;;;2.40;99.90;;;;;;6131514;23;19931;-81
2021/12/17 04:18:07;;;;;;;;;;;2.40;99.90;;;;;;6126739;23;19920;-81
2021/12/17 04:20:35;;;;;;;;;;;2.40;99.90;;;;;;6102351;23;20284;-81
2021/12/17 04:23:03;;;;;;;;;;;2.30;99.90;;;;;;6132826;23;19920;-81
2021/12/17 04:25:30;;;;;;;;;;;2.30;99.90;;;;;;6137033;23;19929;-81
2021/12/17 04:27:59;;;;;;;;;;;2.40;99.90;;;;;;6101491;23;19924;-81
2021/12/17 04:30:30;;;;;;;;;;;2.40;99.90;;;;;;6134118;23;19921;-81
2021/12/17 04:32:58;;;;;;;;;;;2.30;99.90;;;;;;6102241;23;19920;-81
2021/12/17 04:35:27;;;;;;;;;;;2.40;99.90;;;;;;6131073;23;19931;-80
2021/12/17 04:37:58;;;;;;;;;;;2.30;99.90;;;;;;6102480;23;19940;-81
2021/12/17 04:40:27;;;;;;;;;;;2.40;99.90;;;;;;6102444;23;20328;-80
2021/12/17 04:43:21;;;;;;;;;;;2.40;99.90;;;;;;6132044;23;19920;-80
2021/12/17 04:46:14;;;;;;;;;;;2.30;99.90;;;;;;6137076;23;19920;-80
2021/12/17 04:57:20;;;;;;;;;;;2.30;99.90;;;;;;6102016;23;20255;-85
2021/12/17 04:59:52;;;;;;;;;;;2.30;99.90;;;;;;6101020;23;20398;-85
2021/12/17 05:02:20;;;;;;;;;;;2.30;99.90;;;;;;6101764;23;19931;-85
2021/12/17 05:04:56;;;;;;;;;;;2.30;99.90;;;;;;6114721;23;19924;-86
2021/12/17 05:07:25;;;;;;;;;;;2.30;99.90;;;;;;6101811;23;19932;-86
2021/12/17 05:10:04;;;;;;;;;;;2.30;99.90;;;;;;6136124;23;19921;-86
2021/12/17 05:21:02;;;;;;;;;;;2.20;99.90;;;;;;6087585;23;19925;-86
2021/12/17 05:23:42;;;;;;;;;;;2.20;99.90;;;;;;6129549;23;19920;-85
2021/12/17 05:26:15;;;;;;;;;;;2.20;99.90;;;;;;6135474;23;20252;-85
2021/12/17 05:28:51;;;;;;;;;;;2.20;99.90;;;;;;6101463;23;19920;-85
2021/12/17 05:31:22;;;;;;;;;;;2.30;99.90;;;;;;6101565;23;20347;-85
2021/12/17 05:33:53;;;;;;;;;;;2.30;99.90;;;;;;6112464;23;19924;-86
2021/12/17 05:36:27;;;;;;;;;;;2.30;99.90;;;;;;6101259;23;20351;-86
2021/12/17 05:39:06;;;;;;;;;;;2.30;99.90;;;;;;6133433;23;19925;-88
2021/12/17 05:41:35;;;;;;;;;;;2.20;99.90;;;;;;6102495;23;19920;-88
2021/12/17 05:44:24;;;;;;;;;;;2.20;99.90;;;;;;6125793;23;20287;-88
2021/12/17 05:46:55;;;;;;;;;;;2.20;99.90;;;;;;6133458;23;19925;-88
2021/12/17 05:49:25;;;;;;;;;;;2.20;99.90;;;;;;6102419;23;19944;-88
2021/12/17 05:51:55;;;;;;;;;;;2.30;99.90;;;;;;6126086;23;19928;-89
2021/12/17 05:54:24;;;;;;;;;;;2.30;99.90;;;;;;6101506;23;19925;-89
2021/12/17 05:56:52;;;;;;;;;;;2.30;99.90;;;;;;6102883;23;19948;-86
2021/12/17 05:59:21;;;;;;;;;;;2.30;99.90;;;;;;6130121;23;20116;-88
2021/12/17 06:01:49;;;;;;;;;;;2.30;99.90;;;;;;6102103;23;19920;-86
2021/12/17 06:04:19;;;;;;;;;;;2.30;99.90;;;;;;6126425;23;19925;-84
2021/12/17 06:06:56;;;;;;;;;;;2.30;99.90;;;;;;6100727;23;19928;-84
2021/12/17 06:09:24;;;;;;;;;;;2.30;99.90;;;;;;6136356;23;19927;-87
2021/12/17 06:11:53;;;;;;;;;;;2.20;99.90;;;;;;6076923;23;20351;-86
2021/12/17 06:14:21;;;;;;;;;;;2.20;99.90;;;;;;6158459;23;19920;-85
2021/12/17 06:16:49;;;;;;;;;;;2.20;99.90;;;;;;6135519;23;20340;-84
2021/12/17 06:19:25;;;;;;;;;;;2.20;99.90;;;;;;6130207;23;19940;-85
2021/12/17 06:21:53;;;;;;;;;;;2.20;99.90;;;;;;6101246;23;20375;-85
2021/12/17 06:24:21;;;;;;;;;;;2.10;99.90;;;;;;6126077;23;19928;-85
2021/12/17 06:26:48;;;;;;;;;;;2.10;99.90;;;;;;6158361;23;20260;-86
2021/12/17 06:29:16;;;;;;;;;;;2.20;99.90;;;;;;6100310;23;19932;-88
2021/12/17 06:31:47;;;;;;;;;;;2.20;99.90;;;;;;6128166;23;19979;-85
2021/12/17 06:34:14;;;;;;;;;;;2.20;99.90;;;;;;6134777;23;19927;-85
2021/12/17 06:36:42;;;;;;;;;;;2.20;99.90;;;;;;6136261;23;19929;-86
2021/12/17 06:39:10;;;;;;;;;;;2.20;99.90;;;;;;6156833;23;19924;-84
2021/12/17 06:41:39;;;;;;;;;;;2.20;99.90;;;;;;6101777;23;20344;-84
2021/12/17 06:44:10;;;;;;;;;;;2.30;99.90;;;;;;6099557;23;19931;-86
2021/12/17 06:47:08;;;;;;;;;;;2.10;99.90;;;;;;6133488;23;19925;-86
2021/12/17 06:49:49;;;;;;;;;;;2.10;99.90;;;;;;6126451;23;19920;-86
2021/12/17 06:59:10;;;;;;;;;;;1.90;99.90;;;;;;6151095;23;19920;-87
2021/12/17 07:11:38;;;;;;;;;;;1.70;99.90;;;;;;6130538;23;19924;-87
2021/12/17 07:33:59;;;;;;;;;;;1.50;99.90;;;;;;6126707;23;19932;-88
2021/12/17 07:36:55;;;;;;;;;;;1.40;99.90;;;;;;6105041;23;19925;-89
2021/12/17 07:39:27;;;;;;;;;;;1.50;99.90;;;;;;6102795;23;19931;-87
2021/12/17 07:42:09;;;;;;;;;;;1.50;99.90;;;;;;6100211;23;19925;-89
2021/12/17 07:44:39;;;;;;;;;;;1.40;99.90;;;;;;6138479;23;19925;-87
2021/12/17 07:47:34;;;;;;;;;;;1.30;99.90;;;;;;6148815;23;19932;-88
2021/12/17 07:50:20;;;;;;;;;;;1.20;99.90;;;;;;6154266;23;19925;-86
2021/12/17 07:53:08;;;;;;;;;;;1.20;99.90;;;;;;6152873;23;19925;-87
2021/12/17 07:55:56;;;;;;;;;;;1.30;99.90;;;;;;6131081;23;19932;-88
2021/12/17 07:58:24;;;;;;;;;;;1.40;99.90;;;;;;6101755;23;19948;-86
2021/12/17 08:00:53;;;;;;;;;;;1.40;99.90;;;;;;6137304;23;19935;-86
2021/12/17 08:03:21;;;;;;;;;;;1.40;99.90;;;;;;6102203;23;19924;-86
2021/12/17 08:06:01;;;;;;;;;;;1.40;99.90;;;;;;6162090;23;19929;-85
2021/12/17 08:08:32;;;;;;;;;;;1.50;99.90;;;;;;6125912;23;19921;-85
2021/12/17 08:11:08;;;;;;;;;;;1.50;99.90;;;;;;6132119;23;19924;-83
2021/12/17 08:13:36;;;;;;;;;;;1.50;99.90;;;;;;6078422;23;19928;-82
2021/12/17 08:18:56;;;;;;;;;;;1.60;99.90;;;;;;6134291;23;19931;-85
2021/12/17 08:32:10;;;;;;;;;;;1.80;99.90;;;;;;6101379;23;19947;-84
2021/12/17 08:34:47;;;;;;;;;;;1.80;99.90;;;;;;6158246;23;20345;-87
2021/12/17 08:37:15;;;;;;;;;;;1.90;99.90;;;;;;6102653;23;20259;-85
2021/12/17 08:39:45;;;;;;;;;;;2.00;99.90;;;;;;6101944;23;19928;-84
2021/12/17 08:42:39;;;;;;;;;;;2.10;99.90;;;;;;6145738;23;19931;-85
2021/12/17 08:45:09;;;;;;;;;;;2.30;99.90;;;;;;6127398;23;19932;-85
2021/12/17 08:47:57;;;;;;;;;;;2.30;99.90;;;;;;6096117;23;19925;-84
2021/12/17 08:50:40;;;;;;;;;;;2.40;99.90;;;;;;6112076;23;20521;-84
2021/12/17 08:53:11;;;;;;;;;;;2.60;99.90;;;;;;6101508;23;20337;-86
2021/12/17 08:55:40;;;;;;;;;;;2.60;99.90;;;;;;6129975;23;19924;-85
2021/12/17 08:58:13;;;;;;;;;;;2.50;99.90;;;;;;6100855;23;19932;-84
2021/12/17 09:00:44;;;;;;;;;;;2.50;99.90;;;;;;6102234;23;19967;-84
2021/12/17 09:03:18;;;;;;;;;;;2.50;99.90;;;;;;6101615;23;19927;-85
2021/12/17 09:06:02;;;;;;;;;;;2.50;99.90;;;;;;6136992;23;19921;-84
2021/12/17 09:08:37;;;;;;;;;;;2.60;99.90;;;;;;6150248;23;19932;-84
2021/12/17 09:11:08;;;;;;;;;;;2.60;99.90;;;;;;6131772;23;20254;-84
2021/12/17 09:13:56;;;;;;;;;;;2.70;99.90;;;;;;6135352;23;20256;-86
2021/12/17 09:16:29;;;;;;;;;;;2.70;99.90;;;;;;6126182;23;19920;-88
2021/12/17 09:18:57;;;;;;;;;;;2.80;99.90;;;;;;6077639;23;19924;-86
2021/12/17 09:21:33;;;;;;;;;;;2.90;99.90;;;;;;6136085;23;19925;-85
2021/12/17 09:24:08;;;;;;;;;;;2.90;99.90;;;;;;6127478;23;20238;-84
2021/12/17 09:26:56;;;;;;;;;;;2.90;99.90;;;;;;6124672;23;19921;-86
2021/12/17 09:29:30;;;;;;;;;;;3.00;99.90;;;;;;6136620;23;19924;-88
2021/12/17 09:31:58;;;;;;;;;;;3.20;99.90;;;;;;6101138;23;19939;-85
2021/12/17 09:34:26;;;;;;;;;;;4.40;99.90;;;;;;6101436;23;19925;-88
2021/12/17 09:36:53;;;;;;;;;;;5.40;99.90;;;;;;6101094;23;19932;-84
2021/12/17 09:39:22;;;;;;;;;;;5.10;99.90;;;;;;6156982;23;19925;-85
2021/12/17 09:41:52;;;;;;;;;;;4.70;99.90;;;;;;6136135;23;19927;-84
2021/12/17 09:44:23;;;;;;;;;;;4.40;99.90;;;;;;6100380;23;19920;-84
2021/12/17 09:46:51;;;;;;;;;;;4.50;99.90;;;;;;6132797;23;19942;-83
2021/12/17 09:49:19;;;;;;;;;;;5.60;99.90;;;;;;6125739;23;19921;-84
2021/12/17 09:51:47;;;;;;;;;;;6.30;99.90;;;;;;6152684;23;20327;-86
2021/12/17 09:54:15;;;;;;;;;;;5.80;99.90;;;;;;6076367;23;19929;-86
2021/12/17 09:56:43;;;;;;;;;;;5.10;99.90;;;;;;6111889;23;19920;-83
2021/12/17 09:59:12;;;;;;;;;;;4.80;99.90;;;;;;6130612;23;19920;-83
2021/12/17 10:01:40;;;;;;;;;;;4.60;99.90;;;;;;6101683;23;19921;-83
2021/12/17 10:04:16;;;;;;;;;;;4.40;99.90;;;;;;6152169;23;20408;-84
2021/12/17 10:06:44;;;;;;;;;;;4.40;99.90;;;;;;6157803;23;19925;-84
2021/12/17 10:09:12;;;;;;;;;;;4.30;99.90;;;;;;6162210;23;20281;-83
2021/12/17 10:11:58;;;;;;;;;;;4.10;99.90;;;;;;6128395;23;19928;-85
2021/12/17 10:14:26;;;;;;;;;;;4.00;99.90;;;;;;6133585;23;19925;-85
2021/12/17 10:17:05;;;;;;;;;;;4.20;99.90;;;;;;6136179;23;19924;-86
2021/12/17 10:19:49;;;;;;;;;;;4.40;99.90;;;;;;6155862;23;19928;-88
2021/12/17 10:22:20;;;;;;;;;;;4.50;99.90;;;;;;6100312;23;19932;-86
2021/12/17 10:25:17;;;;;;;;;;;4.40;99.90;;;;;;6163146;23;19921;-85
2021/12/17 10:27:45;;;;;;;;;;;4.30;99.90;;;;;;6076964;23;19920;-85
2021/12/17 10:30:17;;;;;;;;;;;4.30;99.90;;;;;;6135486;23;20419;-86
2021/12/17 10:32:47;;;;;;;;;;;4.40;99.90;;;;;;6136456;23;19936;-86
2021/12/17 10:35:17;;;;;;;;;;;4.50;99.90;;;;;;6130535;23;19921;-87
2021/12/17 10:37:51;;;;;;;;;;;4.50;99.90;;;;;;6101688;23;19929;-88
2021/12/17 10:40:21;;;;;;;;;;;4.40;99.90;;;;;;6101277;23;20509;-86
2021/12/17 10:42:56;;;;;;;;;;;4.60;99.90;;;;;;6131930;23;20213;-87
2021/12/17 10:45:27;;;;;;;;;;;4.70;99.90;;;;;;6102119;23;19921;-88
2021/12/17 10:48:19;;;;;;;;;;;4.80;99.90;;;;;;6152346;23;19929;-86
2021/12/17 10:50:52;;;;;;;;;;;4.80;99.90;;;;;;6132742;23;20367;-87
2021/12/17 10:53:23;;;;;;;;;;;4.80;99.90;;;;;;6126232;23;20253;-84
2021/12/17 10:55:52;;;;;;;;;;;4.80;99.90;;;;;;6156170;23;20329;-83
2021/12/17 10:58:20;;;;;;;;;;;4.80;99.90;;;;;;6135632;23;19932;-87
2021/12/17 11:00:53;;;;;;;;;;;4.80;99.90;;;;;;6138234;23;19925;-85
2021/12/17 11:03:22;;;;;;;;;;;4.80;99.90;;;;;;6158713;23;19935;-87
2021/12/17 11:05:49;;;;;;;;;;;4.80;99.90;;;;;;6138218;23;19924;-87
2021/12/17 11:08:20;;;;;;;;;;;4.80;99.90;;;;;;6103121;23;20356;-87
2021/12/17 11:10:55;;;;;;;;;;;4.90;99.90;;;;;;6102970;23;19925;-87
2021/12/17 11:13:23;;;;;;;;;;;4.80;99.90;;;;;;6136284;23;20305;-81
2021/12/17 11:15:52;;;;;;;;;;;4.60;99.90;;;;;;6126137;23;19931;-86
2021/12/17 11:18:20;;;;;;;;;;;4.80;99.90;;;;;;6101459;23;19931;-85
2021/12/17 11:20:48;;;;;;;;;;;4.90;99.90;;;;;;6109402;23;20088;-87
2021/12/17 11:23:16;;;;;;;;;;;5.10;99.90;;;;;;6099907;23;19928;-87
2021/12/17 11:25:45;;;;;;;;;;;5.20;99.90;;;;;;6125198;23;19979;-85
2021/12/17 11:28:13;;;;;;;;;;;5.30;99.90;;;;;;6124752;23;19932;-86
2021/12/17 11:30:42;;;;;;;;;;;5.40;99.90;;;;;;6123925;23;19921;-86
2021/12/17 11:33:10;;;;;;;;;;;5.50;99.90;;;;;;6101139;23;19924;-87
2021/12/17 11:35:39;;;;;;;;;;;5.60;99.90;;;;;;6152539;23;19928;-86
2021/12/17 11:38:15;;;;;;;;;;;5.60;99.90;;;;;;6096330;23;19925;-86
2021/12/17 11:40:45;;;;;;;;;;;5.70;99.90;;;;;;6158657;23;19955;-87
2021/12/17 11:43:38;;;;;;;;;;;5.40;99.90;;;;;;6127817;23;19925;-87
2021/12/17 11:46:10;;;;;;;;;;;5.40;99.90;;;;;;6088747;23;20250;-84
2021/12/17 11:48:48;;;;;;;;;;;5.40;99.90;;;;;;6147867;23;19932;-87
2021/12/17 11:51:17;;;;;;;;;;;5.20;99.90;;;;;;6096423;23;19929;-85
2021/12/17 11:53:54;;;;;;;;;;;5.20;99.90;;;;;;6132365;23;19932;-88
2021/12/17 11:56:35;;;;;;;;;;;5.50;99.90;;;;;;6099474;23;20257;-86
2021/12/17 11:59:03;;;;;;;;;;;5.60;99.90;;;;;;6129459;23;19924;-87
2021/12/17 12:01:46;;;;;;;;;;;5.70;99.90;;;;;;6160895;23;19924;-88
2021/12/17 12:04:24;;;;;;;;;;;5.90;99.90;;;;;;6152437;23;20442;-87
2021/12/17 12:07:02;;;;;;;;;;;5.90;99.90;;;;;;6130524;23;19924;-86
2021/12/17 12:09:54;;;;;;;;;;;5.90;99.90;;;;;;6149707;23;19920;-87
2021/12/17 12:12:34;;;;;;;;;;;5.80;99.90;;;;;;6121988;23;19931;-87
2021/12/17 12:15:21;;;;;;;;;;;5.80;99.90;;;;;;6100081;23;19924;-87
2021/12/17 12:17:57;;;;;;;;;;;5.50;99.90;;;;;;6134982;23;19959;-87
2021/12/17 12:20:41;;;;;;;;;;;5.30;99.90;;;;;;6124369;23;19924;-88
2021/12/17 12:23:27;;;;;;;;;;;5.20;99.90;;;;;;6099668;23;20262;-87
2021/12/17 12:26:04;;;;;;;;;;;5.10;99.90;;;;;;6100359;23;19932;-88
2021/12/17 12:28:40;;;;;;;;;;;5.00;99.90;;;;;;6149531;23;20468;-89
2021/12/17 12:31:19;;;;;;;;;;;5.00;99.90;;;;;;6131350;23;19944;-88
2021/12/17 12:34:03;;;;;;;;;;;4.90;99.90;;;;;;6134777;23;19932;-85
2021/12/17 12:36:40;;;;;;;;;;;4.80;99.90;;;;;;6124612;23;20241;-87
2021/12/17 12:39:14;;;;;;;;;;;4.90;99.90;;;;;;6099881;23;19948;-88
2021/12/17 12:41:56;;;;;;;;;;;4.80;99.90;;;;;;6099715;23;19925;-86
2021/12/17 12:44:42;;;;;;;;;;;4.90;99.90;;;;;;6125689;23;19927;-87
2021/12/17 12:47:09;;;;;;;;;;;4.90;99.90;;;;;;6158274;23;19925;-85
2021/12/17 12:49:50;;;;;;;;;;;4.80;99.90;;;;;;6129362;23;19935;-86
2021/12/17 12:52:24;;;;;;;;;;;4.80;99.90;;;;;;6125466;23;19935;-86
2021/12/17 12:54:53;;;;;;;;;;;4.60;99.90;;;;;;6099633;23;19920;-85
2021/12/17 12:57:25;;;;;;;;;;;4.60;99.90;;;;;;6159634;23;20328;-85
2021/12/17 12:59:53;;;;;;;;;;;4.50;99.90;;;;;;6102703;23;20367;-83
2021/12/17 13:02:20;;;;;;;;;;;4.50;99.90;;;;;;6159538;23;19921;-85
2021/12/17 13:04:48;;;;;;;;;;;4.40;99.90;;;;;;6135315;23;19925;-85
2021/12/17 13:07:16;;;;;;;;;;;4.30;99.90;;;;;;6155038;23;19924;-84
2021/12/17 13:09:44;;;;;;;;;;;4.40;99.90;;;;;;6076714;23;19921;-84
2021/12/17 13:12:11;;;;;;;;;;;4.50;99.90;;;;;;6149529;23;20245;-83
2021/12/17 13:14:42;;;;;;;;;;;4.70;99.90;;;;;;6158228;23;19932;-84
2021/12/17 13:17:41;;;;;;;;;;;4.80;99.90;;;;;;6135976;23;19921;-90
2021/12/17 13:22:55;;;;;;;;;;;4.70;99.90;;;;;;6157905;23;20240;-83
2021/12/17 13:25:27;;;;;;;;;;;4.50;99.90;;;;;;6160754;23;19928;-84
2021/12/17 13:28:01;;;;;;;;;;;4.40;99.90;;;;;;6120883;23;19927;-90
2021/12/17 13:30:30;;;;;;;;;;;4.20;99.90;;;;;;6079164;23;19921;-91
2021/12/17 13:32:58;;;;;;;;;;;4.10;99.90;;;;;;6139300;23;20217;-89
2021/12/17 13:35:34;;;;;;;;;;;4.10;99.90;;;;;;6126356;23;19932;-85
2021/12/17 13:38:03;;;;;;;;;;;4.10;99.90;;;;;;6100598;23;19932;-86
2021/12/17 13:40:36;;;;;;;;;;;4.00;99.90;;;;;;6123763;23;19920;-86
2021/12/17 13:43:04;;;;;;;;;;;4.10;99.90;;;;;;6128089;23;19920;-86
2021/12/17 13:45:31;;;;;;;;;;;4.10;99.90;;;;;;6159370;23;19924;-86
2021/12/17 13:48:01;;;;;;;;;;;4.20;99.90;;;;;;6100044;23;19924;-86
2021/12/17 13:50:33;;;;;;;;;;;4.10;99.90;;;;;;6149633;23;19920;-84
2021/12/17 13:53:11;;;;;;;;;;;4.10;99.90;;;;;;6123652;23;20248;-84
2021/12/17 13:55:58;;;;;;;;;;;4.10;99.90;;;;;;6126426;23;19921;-87
2021/12/17 13:58:28;;;;;;;;;;;4.10;99.90;;;;;;6154935;23;20229;-86
2021/12/17 14:00:57;;;;;;;;;;;4.00;99.90;;;;;;6130091;23;20252;-87
2021/12/17 14:03:28;;;;;;;;;;;4.10;99.90;;;;;;6093128;23;19924;-85
2021/12/17 14:06:08;;;;;;;;;;;4.10;99.90;;;;;;6132558;23;20025;-88
2021/12/17 14:08:40;;;;;;;;;;;4.10;99.90;;;;;;6122500;23;19921;-87
2021/12/17 14:11:33;;;;;;;;;;;4.20;99.90;;;;;;6116742;23;19924;-86
2021/12/17 14:14:25;;;;;;;;;;;4.20;99.90;;;;;;6111468;23;19928;-88
2021/12/17 14:16:57;;;;;;;;;;;4.20;99.90;;;;;;6134775;23;19921;-88
2021/12/17 14:19:35;;;;;;;;;;;4.20;99.90;;;;;;6154590;23;20355;-84
2021/12/17 14:22:18;;;;;;;;;;;4.20;99.90;;;;;;6157038;23;20225;-86
2021/12/17 14:24:47;;;;;;;;;;;4.10;99.90;;;;;;6061369;23;20260;-87
2021/12/17 14:27:15;;;;;;;;;;;4.10;99.90;;;;;;6126879;23;20191;-85
2021/12/17 14:29:42;;;;;;;;;;;4.10;99.90;;;;;;6133320;23;19925;-84
2021/12/17 14:32:17;;;;;;;;;;;4.10;99.90;;;;;;6098196;23;20391;-88
2021/12/17 14:34:45;;;;;;;;;;;4.10;99.90;;;;;;6130521;23;19924;-86
2021/12/17 14:37:12;;;;;;;;;;;4.10;99.90;;;;;;6098714;23;19920;-88
2021/12/17 14:39:43;;;;;;;;;;;4.10;99.90;;;;;;6127091;23;19924;-89
2021/12/17 14:42:27;;;;;;;;;;;4.00;99.90;;;;;;6156783;23;20251;-87
2021/12/17 14:44:59;;;;;;;;;;;4.00;99.90;;;;;;6099740;23;19947;-88
2021/12/17 14:47:33;;;;;;;;;;;3.90;99.90;;;;;;6123639;23;19924;-90
2021/12/17 15:04:03;;;;;;;;;;;3.90;99.90;;;;;;6006339;23;19926;-89
2021/12/17 15:06:31;;;;;;;;;;;3.80;99.90;;;;;;6014668;23;20262;-90
2021/12/17 15:08:59;;;;;;;;;;;3.80;99.90;;;;;;6030855;23;19925;-88
2021/12/17 15:11:31;;;;;;;;;;;3.80;99.90;;;;;;6098517;23;19925;-88
2021/12/17 15:13:59;;;;;;;;;;;3.80;99.90;;;;;;6157778;23;19920;-87
2021/12/17 15:16:27;;;;;;;;;;;3.80;99.90;;;;;;6123517;23;19921;-88
2021/12/17 15:18:54;;;;;;;;;;;3.70;99.90;;;;;;6105862;23;19948;-86
2021/12/17 15:21:21;;;;;;;;;;;3.70;99.90;;;;;;6098930;23;19931;-87
2021/12/17 15:23:49;;;;;;;;;;;3.70;99.90;;;;;;6098779;23;19925;-87
2021/12/17 15:26:17;;;;;;;;;;;3.70;99.90;;;;;;6158509;23;19928;-87
2021/12/17 15:28:44;;;;;;;;;;;3.70;99.90;;;;;;6131587;23;19924;-85
2021/12/17 15:31:31;;;;;;;;;;;3.60;99.90;;;;;;6098163;23;20321;-86
2021/12/17 15:33:59;;;;;;;;;;;3.70;99.90;;;;;;6109305;23;19924;-87
2021/12/17 15:36:26;;;;;;;;;;;3.60;99.90;;;;;;6150089;23;20336;-86
2021/12/17 15:38:54;;;;;;;;;;;3.70;99.90;;;;;;6074658;23;19925;-87
2021/12/17 15:41:21;;;;;;;;;;;3.60;99.90;;;;;;6110680;23;20328;-86
2021/12/17 15:43:49;;;;;;;;;;;3.50;99.90;;;;;;6151909;23;19928;-86
2021/12/17 15:46:16;;;;;;;;;;;3.50;99.90;;;;;;6160915;23;19920;-87
2021/12/17 15:48:45;;;;;;;;;;;3.50;99.90;;;;;;6133246;23;19924;-86
2021/12/17 15:51:12;;;;;;;;;;;3.50;99.90;;;;;;6129956;23;19925;-86
2021/12/17 15:53:42;;;;;;;;;;;3.50;99.90;;;;;;6135339;23;19924;-86
2021/12/17 15:56:09;;;;;;;;;;;3.50;99.90;;;;;;6100228;23;19939;-86
2021/12/17 15:58:37;;;;;;;;;;;3.40;99.90;;;;;;6123157;23;19931;-87
2021/12/17 16:01:04;;;;;;;;;;;3.40;99.90;;;;;;6159243;23;19924;-87
2021/12/17 16:03:35;;;;;;;;;;;3.30;99.90;;;;;;6076575;23;19936;-86
2021/12/17 16:06:04;;;;;;;;;;;3.20;99.90;;;;;;6161494;23;20328;-85
2021/12/17 16:08:35;;;;;;;;;;;3.30;99.90;;;;;;6124543;23;20325;-86
2021/12/17 16:11:26;;;;;;;;;;;3.20;99.90;;;;;;6099014;23;19925;-84
2021/12/17 16:22:16;;;;;;;;;;;2.70;99.90;;;;;;6123992;23;19959;-86
2021/12/17 16:24:43;;;;;;;;;;;2.60;99.90;;;;;;6101068;23;19931;-85
2021/12/17 16:27:11;;;;;;;;;;;2.50;99.90;;;;;;6098580;23;19925;-85
2021/12/17 16:29:39;;;;;;;;;;;2.50;99.90;;;;;;6134803;23;19929;-85
2021/12/17 16:32:07;;;;;;;;;;;2.50;99.90;;;;;;6125663;23;19931;-85
2021/12/17 16:34:34;;;;;;;;;;;2.40;99.90;;;;;;6123940;23;19924;-84
2021/12/17 16:37:02;;;;;;;;;;;2.40;99.90;;;;;;6160759;23;19931;-84
2021/12/17 16:39:29;;;;;;;;;;;2.40;99.90;;;;;;6123932;23;19932;-85
2021/12/17 16:41:58;;;;;;;;;;;2.30;99.90;;;;;;6098594;23;20352;-85
2021/12/17 16:44:41;;;;;;;;;;;2.10;99.90;;;;;;6100490;23;19926;-85
2021/12/17 16:47:24;;;;;;;;;;;2.00;99.90;;;;;;6155589;23;19948;-86
2021/12/17 16:49:52;;;;;;;;;;;2.00;99.90;;;;;;6123969;23;19931;-85
2021/12/17 16:52:19;;;;;;;;;;;1.70;99.90;;;;;;6098791;23;19936;-86
2021/12/17 16:54:47;;;;;;;;;;;1.70;99.90;;;;;;6075393;23;19928;-84
2021/12/17 16:57:14;;;;;;;;;;;1.50;99.90;;;;;;6132844;23;19924;-85
2021/12/17 16:59:42;;;;;;;;;;;1.50;99.90;;;;;;6127741;23;20375;-88
2021/12/17 17:02:09;;;;;;;;;;;1.40;99.90;;;;;;6133863;23;19928;-86
2021/12/17 17:04:37;;;;;;;;;;;1.40;99.90;;;;;;6134417;23;19932;-84
2021/12/17 17:07:05;;;;;;;;;;;1.30;99.90;;;;;;6097876;23;19924;-86
2021/12/17 17:09:33;;;;;;;;;;;1.30;99.90;;;;;;6100338;23;19920;-85
2021/12/17 17:12:04;;;;;;;;;;;1.20;99.90;;;;;;6150110;23;19928;-86
2021/12/17 17:14:32;;;;;;;;;;;1.10;99.90;;;;;;6099544;23;19931;-84
2021/12/17 17:17:00;;;;;;;;;;;1.10;99.90;;;;;;6160866;23;19932;-85
2021/12/17 17:19:28;;;;;;;;;;;1.20;99.90;;;;;;6154236;23;19921;-86
2021/12/17 17:21:56;;;;;;;;;;;1.20;99.90;;;;;;6134171;23;19924;-82
2021/12/17 17:24:28;;;;;;;;;;;1.30;99.90;;;;;;6124522;23;19925;-81
2021/12/17 17:26:56;;;;;;;;;;;1.30;99.90;;;;;;6123824;23;19932;-84
2021/12/17 17:29:24;;;;;;;;;;;1.40;99.90;;;;;;6158083;23;20328;-83
2021/12/17 17:31:52;;;;;;;;;;;1.40;99.90;;;;;;6098870;23;19924;-88
2021/12/17 17:34:21;;;;;;;;;;;1.50;99.90;;;;;;6135051;23;19947;-85
2021/12/17 17:36:48;;;;;;;;;;;1.50;99.90;;;;;;6162464;23;19932;-82
2021/12/17 17:39:17;;;;;;;;;;;1.60;99.90;;;;;;6154958;23;19925;-82
2021/12/17 17:41:48;;;;;;;;;;;1.70;99.90;;;;;;6149035;23;20352;-82
2021/12/17 17:44:15;;;;;;;;;;;1.80;99.90;;;;;;6149449;23;19925;-83
2021/12/17 17:46:43;;;;;;;;;;;1.90;99.90;;;;;;6106918;23;19925;-82
2021/12/17 17:49:10;;;;;;;;;;;2.00;99.90;;;;;;6155564;23;20329;-82
2021/12/17 17:51:39;;;;;;;;;;;2.00;99.90;;;;;;6152724;23;19932;-82
2021/12/17 17:54:07;;;;;;;;;;;2.10;99.90;;;;;;6159996;23;20244;-83
2021/12/17 17:56:34;;;;;;;;;;;2.10;99.90;;;;;;6149304;23;19924;-83
2021/12/17 17:59:04;;;;;;;;;;;2.10;99.90;;;;;;6128143;23;19925;-84
2021/12/17 18:01:34;;;;;;;;;;;2.20;99.90;;;;;;6097280;23;19931;-85
2021/12/17 18:04:02;;;;;;;;;;;2.20;99.90;;;;;;6126286;23;19925;-85
2021/12/17 18:06:30;;;;;;;;;;;2.20;99.90;;;;;;6132011;23;20321;-84
2021/12/17 18:08:58;;;;;;;;;;;2.20;99.90;;;;;;6122831;23;19939;-84
2021/12/17 18:11:25;;;;;;;;;;;2.30;99.90;;;;;;6073267;23;19924;-85
2021/12/17 18:13:52;;;;;;;;;;;2.30;99.90;;;;;;6097688;23;20222;-85
2021/12/17 18:16:24;;;;;;;;;;;2.30;99.90;;;;;;6124770;23;19935;-84
2021/12/17 18:18:52;;;;;;;;;;;2.20;99.90;;;;;;6123379;23;19925;-83
2021/12/17 18:21:19;;;;;;;;;;;2.30;99.90;;;;;;6159975;23;20240;-81
2021/12/17 18:23:47;;;;;;;;;;;2.20;99.90;;;;;;6125108;23;19921;-82
2021/12/17 18:26:14;;;;;;;;;;;2.20;99.90;;;;;;6161002;23;19924;-82
2021/12/17 18:28:43;;;;;;;;;;;2.20;99.90;;;;;;6151732;23;19932;-85
2021/12/17 18:31:10;;;;;;;;;;;2.20;99.90;;;;;;6126383;23;19929;-84